sensor_id;sensor_type;location;lat;lon;timestamp;P1;durP1;ratioP1;P2;durP2;ratioP2
9904;SDS011;4991;43.566;27.820;2022-07-06T00:01:16;9.27;;;4.73;;
9904;SDS011;4991;43.566;27.820;2022-07-06T00:03:42;8.80;;;5.03;;
9904;SDS011;4991;43.566;27.820;2022-07-06T00:06:08;6.27;;;4.73;;
9904;SDS011;4991;43.566;27.820;2022-07-06T00:08:33;7.83;;;4.87;;
9904;SDS011;4991;43.566;27.820;2022-07-06T00:10:59;5.53;;;4.50;;
9904;SDS011;4991;43.566;27.820;2022-07-06T00:13:26;6.33;;;4.57;;
9904;SDS011;4991;43.566;27.820;2022-07-06T00:15:52;6.50;;;4.67;;
9904;SDS011;4991;43.566;27.820;2022-07-06T00:18:18;8.03;;;5.17;;
9904;SDS011;4991;43.566;27.820;2022-07-06T00:20:43;6.80;;;5.13;;
9904;SDS011;4991;43.566;27.820;2022-07-06T00:23:09;9.43;;;5.50;;
9904;SDS011;4991;43.566;27.820;2022-07-06T00:25:35;7.33;;;4.60;;
9904;SDS011;4991;43.566;27.820;2022-07-06T00:28:01;5.50;;;4.60;;
9904;SDS011;4991;43.566;27.820;2022-07-06T00:30:26;6.17;;;5.10;;
9904;SDS011;4991;43.566;27.820;2022-07-06T00:32:52;9.30;;;5.03;;
9904;SDS011;4991;43.566;27.820;2022-07-06T00:35:18;5.77;;;4.73;;
9904;SDS011;4991;43.566;27.820;2022-07-06T00:37:44;6.20;;;4.73;;
9904;SDS011;4991;43.566;27.820;2022-07-06T00:40:09;7.57;;;4.60;;
9904;SDS011;4991;43.566;27.820;2022-07-06T00:42:39;7.20;;;4.50;;
9904;SDS011;4991;43.566;27.820;2022-07-06T00:45:09;10.30;;;4.90;;
9904;SDS011;4991;43.566;27.820;2022-07-06T00:47:35;6.60;;;4.93;;
9904;SDS011;4991;43.566;27.820;2022-07-06T00:50:01;7.90;;;4.50;;
9904;SDS011;4991;43.566;27.820;2022-07-06T00:52:41;6.70;;;4.33;;
9904;SDS011;4991;43.566;27.820;2022-07-06T00:55:11;6.00;;;3.97;;
9904;SDS011;4991;43.566;27.820;2022-07-06T00:57:38;8.13;;;5.70;;
9904;SDS011;4991;43.566;27.820;2022-07-06T01:00:04;5.80;;;5.07;;
9904;SDS011;4991;43.566;27.820;2022-07-06T01:02:36;6.90;;;5.07;;
9904;SDS011;4991;43.566;27.820;2022-07-06T01:05:06;8.47;;;5.47;;
9904;SDS011;4991;43.566;27.820;2022-07-06T01:07:33;8.30;;;5.63;;
9904;SDS011;4991;43.566;27.820;2022-07-06T01:09:59;6.13;;;5.10;;
9904;SDS011;4991;43.566;27.820;2022-07-06T01:12:25;9.47;;;5.27;;
9904;SDS011;4991;43.566;27.820;2022-07-06T01:14:50;7.40;;;5.80;;
9904;SDS011;4991;43.566;27.820;2022-07-06T01:17:17;7.30;;;5.17;;
9904;SDS011;4991;43.566;27.820;2022-07-06T01:19:43;7.10;;;4.60;;
9904;SDS011;4991;43.566;27.820;2022-07-06T01:22:09;6.97;;;4.43;;
9904;SDS011;4991;43.566;27.820;2022-07-06T01:24:35;6.00;;;4.87;;
9904;SDS011;4991;43.566;27.820;2022-07-06T01:27:03;7.00;;;4.60;;
9904;SDS011;4991;43.566;27.820;2022-07-06T01:29:29;5.67;;;4.80;;
9904;SDS011;4991;43.566;27.820;2022-07-06T01:31:54;9.73;;;4.60;;
9904;SDS011;4991;43.566;27.820;2022-07-06T01:34:21;6.70;;;4.60;;
9904;SDS011;4991;43.566;27.820;2022-07-06T01:36:47;11.47;;;5.67;;
9904;SDS011;4991;43.566;27.820;2022-07-06T01:39:12;9.40;;;5.50;;
9904;SDS011;4991;43.566;27.820;2022-07-06T01:41:38;7.70;;;5.20;;
9904;SDS011;4991;43.566;27.820;2022-07-06T01:44:03;9.73;;;4.43;;
9904;SDS011;4991;43.566;27.820;2022-07-06T01:46:30;6.00;;;4.47;;
9904;SDS011;4991;43.566;27.820;2022-07-06T01:48:56;5.73;;;4.17;;
9904;SDS011;4991;43.566;27.820;2022-07-06T01:51:22;7.17;;;4.50;;
9904;SDS011;4991;43.566;27.820;2022-07-06T01:53:48;4.77;;;3.57;;
9904;SDS011;4991;43.566;27.820;2022-07-06T01:56:14;4.30;;;3.87;;
9904;SDS011;4991;43.566;27.820;2022-07-06T01:58:39;4.83;;;4.00;;
9904;SDS011;4991;43.566;27.820;2022-07-06T02:01:12;8.77;;;4.50;;
9904;SDS011;4991;43.566;27.820;2022-07-06T02:03:43;5.77;;;4.20;;
9904;SDS011;4991;43.566;27.820;2022-07-06T02:06:09;7.00;;;4.30;;
9904;SDS011;4991;43.566;27.820;2022-07-06T02:08:36;4.70;;;4.13;;
9904;SDS011;4991;43.566;27.820;2022-07-06T02:11:02;6.67;;;4.67;;
9904;SDS011;4991;43.566;27.820;2022-07-06T02:13:29;8.60;;;4.43;;
9904;SDS011;4991;43.566;27.820;2022-07-06T02:15:54;7.07;;;4.07;;
9904;SDS011;4991;43.566;27.820;2022-07-06T02:18:20;8.27;;;3.87;;
9904;SDS011;4991;43.566;27.820;2022-07-06T02:20:46;5.17;;;4.60;;
9904;SDS011;4991;43.566;27.820;2022-07-06T02:23:11;6.70;;;4.53;;
9904;SDS011;4991;43.566;27.820;2022-07-06T02:25:37;7.37;;;4.43;;
9904;SDS011;4991;43.566;27.820;2022-07-06T02:28:03;6.63;;;4.67;;
9904;SDS011;4991;43.566;27.820;2022-07-06T02:30:29;6.07;;;4.57;;
9904;SDS011;4991;43.566;27.820;2022-07-06T02:32:54;6.23;;;5.60;;
9904;SDS011;4991;43.566;27.820;2022-07-06T02:35:20;6.67;;;5.33;;
9904;SDS011;4991;43.566;27.820;2022-07-06T02:37:46;8.53;;;5.17;;
9904;SDS011;4991;43.566;27.820;2022-07-06T02:40:12;11.83;;;5.50;;
9904;SDS011;4991;43.566;27.820;2022-07-06T02:42:37;5.43;;;4.90;;
9904;SDS011;4991;43.566;27.820;2022-07-06T02:45:04;6.47;;;4.53;;
9904;SDS011;4991;43.566;27.820;2022-07-06T02:47:30;6.67;;;4.90;;
9904;SDS011;4991;43.566;27.820;2022-07-06T02:49:56;9.80;;;5.37;;
9904;SDS011;4991;43.566;27.820;2022-07-06T02:52:21;11.60;;;5.13;;
9904;SDS011;4991;43.566;27.820;2022-07-06T02:54:47;7.70;;;4.57;;
9904;SDS011;4991;43.566;27.820;2022-07-06T02:57:14;8.63;;;5.33;;
9904;SDS011;4991;43.566;27.820;2022-07-06T02:59:40;8.17;;;4.83;;
9904;SDS011;4991;43.566;27.820;2022-07-06T03:02:06;8.77;;;5.20;;
9904;SDS011;4991;43.566;27.820;2022-07-06T03:04:32;9.20;;;4.93;;
9904;SDS011;4991;43.566;27.820;2022-07-06T03:06:58;10.40;;;5.03;;
9904;SDS011;4991;43.566;27.820;2022-07-06T03:09:24;13.53;;;5.90;;
9904;SDS011;4991;43.566;27.820;2022-07-06T03:11:50;8.30;;;5.00;;
9904;SDS011;4991;43.566;27.820;2022-07-06T03:14:17;10.60;;;4.90;;
9904;SDS011;4991;43.566;27.820;2022-07-06T03:16:43;6.30;;;4.60;;
9904;SDS011;4991;43.566;27.820;2022-07-06T03:19:08;12.30;;;5.00;;
9904;SDS011;4991;43.566;27.820;2022-07-06T03:21:34;8.83;;;4.47;;
9904;SDS011;4991;43.566;27.820;2022-07-06T03:23:59;10.37;;;5.20;;
9904;SDS011;4991;43.566;27.820;2022-07-06T03:26:25;6.50;;;4.73;;
9904;SDS011;4991;43.566;27.820;2022-07-06T03:28:51;8.53;;;4.37;;
9904;SDS011;4991;43.566;27.820;2022-07-06T03:31:17;6.83;;;4.63;;
9904;SDS011;4991;43.566;27.820;2022-07-06T03:33:42;9.73;;;4.17;;
9904;SDS011;4991;43.566;27.820;2022-07-06T03:36:08;5.13;;;4.57;;
9904;SDS011;4991;43.566;27.820;2022-07-06T03:38:34;7.47;;;5.03;;
9904;SDS011;4991;43.566;27.820;2022-07-06T03:41:01;5.67;;;4.53;;
9904;SDS011;4991;43.566;27.820;2022-07-06T03:43:27;5.80;;;4.77;;
9904;SDS011;4991;43.566;27.820;2022-07-06T03:45:52;4.60;;;4.10;;
9904;SDS011;4991;43.566;27.820;2022-07-06T03:48:18;9.13;;;4.87;;
9904;SDS011;4991;43.566;27.820;2022-07-06T03:50:44;7.40;;;4.87;;
9904;SDS011;4991;43.566;27.820;2022-07-06T03:53:09;8.50;;;5.20;;
9904;SDS011;4991;43.566;27.820;2022-07-06T03:55:35;7.53;;;4.90;;
9904;SDS011;4991;43.566;27.820;2022-07-06T03:58:01;12.60;;;3.93;;
9904;SDS011;4991;43.566;27.820;2022-07-06T04:00:26;6.80;;;4.47;;
9904;SDS011;4991;43.566;27.820;2022-07-06T04:02:52;6.13;;;4.30;;
9904;SDS011;4991;43.566;27.820;2022-07-06T04:05:18;4.40;;;3.80;;
9904;SDS011;4991;43.566;27.820;2022-07-06T04:07:47;8.50;;;4.97;;
9904;SDS011;4991;43.566;27.820;2022-07-06T04:10:14;10.97;;;4.30;;
9904;SDS011;4991;43.566;27.820;2022-07-06T04:12:43;10.90;;;5.67;;
9904;SDS011;4991;43.566;27.820;2022-07-06T04:15:10;9.80;;;5.03;;
9904;SDS011;4991;43.566;27.820;2022-07-06T04:17:37;11.10;;;5.40;;
9904;SDS011;4991;43.566;27.820;2022-07-06T04:20:19;13.03;;;6.00;;
9904;SDS011;4991;43.566;27.820;2022-07-06T04:22:46;10.50;;;5.27;;
9904;SDS011;4991;43.566;27.820;2022-07-06T04:25:12;21.73;;;6.70;;
9904;SDS011;4991;43.566;27.820;2022-07-06T04:27:37;13.50;;;5.97;;
9904;SDS011;4991;43.566;27.820;2022-07-06T04:30:04;16.47;;;6.27;;
9904;SDS011;4991;43.566;27.820;2022-07-06T04:32:30;17.03;;;6.40;;
9904;SDS011;4991;43.566;27.820;2022-07-06T04:34:56;20.17;;;7.37;;
9904;SDS011;4991;43.566;27.820;2022-07-06T04:37:22;20.93;;;7.33;;
9904;SDS011;4991;43.566;27.820;2022-07-06T04:39:48;27.67;;;9.00;;
9904;SDS011;4991;43.566;27.820;2022-07-06T04:42:13;22.23;;;9.20;;
9904;SDS011;4991;43.566;27.820;2022-07-06T04:44:39;22.60;;;9.00;;
9904;SDS011;4991;43.566;27.820;2022-07-06T04:47:05;24.63;;;9.20;;
9904;SDS011;4991;43.566;27.820;2022-07-06T04:49:30;29.60;;;9.73;;
9904;SDS011;4991;43.566;27.820;2022-07-06T04:51:56;21.93;;;8.63;;
9904;SDS011;4991;43.566;27.820;2022-07-06T04:54:22;28.77;;;9.80;;
9904;SDS011;4991;43.566;27.820;2022-07-06T04:56:47;11.27;;;5.77;;
9904;SDS011;4991;43.566;27.820;2022-07-06T04:59:13;10.20;;;5.50;;
9904;SDS011;4991;43.566;27.820;2022-07-06T05:01:39;13.13;;;6.30;;
9904;SDS011;4991;43.566;27.820;2022-07-06T05:04:06;16.20;;;6.63;;
9904;SDS011;4991;43.566;27.820;2022-07-06T05:06:32;28.97;;;9.07;;
9904;SDS011;4991;43.566;27.820;2022-07-06T05:08:58;21.73;;;7.47;;
9904;SDS011;4991;43.566;27.820;2022-07-06T05:11:27;17.73;;;7.47;;
9904;SDS011;4991;43.566;27.820;2022-07-06T05:13:53;14.23;;;6.93;;
9904;SDS011;4991;43.566;27.820;2022-07-06T05:16:19;18.47;;;8.77;;
9904;SDS011;4991;43.566;27.820;2022-07-06T05:18:45;15.30;;;9.83;;
9904;SDS011;4991;43.566;27.820;2022-07-06T05:21:11;18.47;;;10.37;;
9904;SDS011;4991;43.566;27.820;2022-07-06T05:23:36;9.27;;;5.97;;
9904;SDS011;4991;43.566;27.820;2022-07-06T05:26:03;9.20;;;5.90;;
9904;SDS011;4991;43.566;27.820;2022-07-06T05:28:29;11.27;;;5.53;;
9904;SDS011;4991;43.566;27.820;2022-07-06T05:30:55;14.20;;;6.60;;
9904;SDS011;4991;43.566;27.820;2022-07-06T05:33:20;11.47;;;6.63;;
9904;SDS011;4991;43.566;27.820;2022-07-06T05:35:46;8.87;;;4.87;;
9904;SDS011;4991;43.566;27.820;2022-07-06T05:38:12;8.83;;;5.03;;
9904;SDS011;4991;43.566;27.820;2022-07-06T05:40:37;8.77;;;5.03;;
9904;SDS011;4991;43.566;27.820;2022-07-06T05:43:03;12.07;;;5.30;;
9904;SDS011;4991;43.566;27.820;2022-07-06T05:45:29;8.93;;;5.60;;
9904;SDS011;4991;43.566;27.820;2022-07-06T05:47:54;7.03;;;4.50;;
9904;SDS011;4991;43.566;27.820;2022-07-06T05:50:39;9.03;;;5.90;;
9904;SDS011;4991;43.566;27.820;2022-07-06T05:53:05;8.87;;;5.67;;
9904;SDS011;4991;43.566;27.820;2022-07-06T05:55:33;6.13;;;4.47;;
9904;SDS011;4991;43.566;27.820;2022-07-06T05:57:58;10.03;;;5.50;;
9904;SDS011;4991;43.566;27.820;2022-07-06T06:00:25;9.03;;;5.50;;
9904;SDS011;4991;43.566;27.820;2022-07-06T06:02:52;7.60;;;4.47;;
9904;SDS011;4991;43.566;27.820;2022-07-06T06:05:18;10.53;;;5.13;;
9904;SDS011;4991;43.566;27.820;2022-07-06T06:07:45;7.40;;;4.90;;
9904;SDS011;4991;43.566;27.820;2022-07-06T06:10:17;7.43;;;4.47;;
9904;SDS011;4991;43.566;27.820;2022-07-06T06:12:43;6.47;;;4.47;;
9904;SDS011;4991;43.566;27.820;2022-07-06T06:15:10;6.30;;;4.85;;
9904;SDS011;4991;43.566;27.820;2022-07-06T06:17:36;5.53;;;4.47;;
9904;SDS011;4991;43.566;27.820;2022-07-06T06:20:07;10.95;;;5.63;;
9904;SDS011;4991;43.566;27.820;2022-07-06T06:22:47;9.68;;;5.00;;
9904;SDS011;4991;43.566;27.820;2022-07-06T06:25:36;9.20;;;4.75;;
9904;SDS011;4991;43.566;27.820;2022-07-06T06:28:07;7.45;;;5.05;;
9904;SDS011;4991;43.566;27.820;2022-07-06T06:30:34;5.47;;;4.80;;
9904;SDS011;4991;43.566;27.820;2022-07-06T06:35:33;8.48;;;4.97;;
9904;SDS011;4991;43.566;27.820;2022-07-06T06:37:58;6.40;;;4.72;;
9904;SDS011;4991;43.566;27.820;2022-07-06T06:40:24;6.32;;;5.00;;
9904;SDS011;4991;43.566;27.820;2022-07-06T06:42:50;8.48;;;5.22;;
9904;SDS011;4991;43.566;27.820;2022-07-06T06:45:15;7.28;;;5.32;;
9904;SDS011;4991;43.566;27.820;2022-07-06T06:47:41;7.80;;;5.57;;
9904;SDS011;4991;43.566;27.820;2022-07-06T06:50:06;5.43;;;4.88;;
9904;SDS011;4991;43.566;27.820;2022-07-06T06:52:32;6.82;;;5.00;;
9904;SDS011;4991;43.566;27.820;2022-07-06T06:54:58;6.55;;;4.68;;
9904;SDS011;4991;43.566;27.820;2022-07-06T06:57:25;7.10;;;4.95;;
9904;SDS011;4991;43.566;27.820;2022-07-06T06:59:50;7.47;;;4.50;;
9904;SDS011;4991;43.566;27.820;2022-07-06T07:02:16;5.95;;;4.80;;
9904;SDS011;4991;43.566;27.820;2022-07-06T07:04:41;5.72;;;4.57;;
9904;SDS011;4991;43.566;27.820;2022-07-06T07:07:07;5.10;;;4.60;;
9904;SDS011;4991;43.566;27.820;2022-07-06T07:09:33;7.05;;;5.10;;
9904;SDS011;4991;43.566;27.820;2022-07-06T07:11:58;8.30;;;5.43;;
9904;SDS011;4991;43.566;27.820;2022-07-06T07:14:24;9.15;;;5.20;;
9904;SDS011;4991;43.566;27.820;2022-07-06T07:16:49;8.98;;;5.10;;
9904;SDS011;4991;43.566;27.820;2022-07-06T07:19:15;8.88;;;6.03;;
9904;SDS011;4991;43.566;27.820;2022-07-06T07:21:41;11.93;;;5.55;;
9904;SDS011;4991;43.566;27.820;2022-07-06T07:24:06;12.52;;;5.88;;
9904;SDS011;4991;43.566;27.820;2022-07-06T07:26:32;8.50;;;5.60;;
9904;SDS011;4991;43.566;27.820;2022-07-06T07:28:58;8.05;;;5.55;;
9904;SDS011;4991;43.566;27.820;2022-07-06T07:31:24;7.72;;;5.05;;
9904;SDS011;4991;43.566;27.820;2022-07-06T07:33:49;16.00;;;6.45;;
9904;SDS011;4991;43.566;27.820;2022-07-06T07:36:15;10.68;;;6.53;;
9904;SDS011;4991;43.566;27.820;2022-07-06T07:38:40;10.57;;;6.32;;
9904;SDS011;4991;43.566;27.820;2022-07-06T07:41:06;8.40;;;5.85;;
9904;SDS011;4991;43.566;27.820;2022-07-06T07:43:32;6.45;;;5.07;;
9904;SDS011;4991;43.566;27.820;2022-07-06T07:45:57;7.57;;;5.30;;
9904;SDS011;4991;43.566;27.820;2022-07-06T07:48:23;9.02;;;5.38;;
9904;SDS011;4991;43.566;27.820;2022-07-06T07:50:48;9.18;;;4.85;;
9904;SDS011;4991;43.566;27.820;2022-07-06T07:53:14;19.08;;;7.57;;
9904;SDS011;4991;43.566;27.820;2022-07-06T07:55:40;17.90;;;7.45;;
9904;SDS011;4991;43.566;27.820;2022-07-06T07:58:05;7.60;;;4.93;;
9904;SDS011;4991;43.566;27.820;2022-07-06T08:00:31;8.10;;;4.85;;
9904;SDS011;4991;43.566;27.820;2022-07-06T08:02:56;4.90;;;4.40;;
9904;SDS011;4991;43.566;27.820;2022-07-06T08:05:22;11.50;;;5.95;;
9904;SDS011;4991;43.566;27.820;2022-07-06T08:07:48;9.63;;;5.70;;
9904;SDS011;4991;43.566;27.820;2022-07-06T08:10:13;16.63;;;6.60;;
9904;SDS011;4991;43.566;27.820;2022-07-06T08:12:39;8.65;;;5.45;;
9904;SDS011;4991;43.566;27.820;2022-07-06T08:15:05;16.92;;;6.88;;
9904;SDS011;4991;43.566;27.820;2022-07-06T08:17:31;15.07;;;6.78;;
9904;SDS011;4991;43.566;27.820;2022-07-06T08:19:56;6.28;;;5.05;;
9904;SDS011;4991;43.566;27.820;2022-07-06T08:22:22;11.35;;;5.10;;
9904;SDS011;4991;43.566;27.820;2022-07-06T08:24:48;10.32;;;6.00;;
9904;SDS011;4991;43.566;27.820;2022-07-06T08:27:14;10.10;;;6.07;;
9904;SDS011;4991;43.566;27.820;2022-07-06T08:29:39;9.82;;;5.55;;
9904;SDS011;4991;43.566;27.820;2022-07-06T08:32:05;10.75;;;5.40;;
9904;SDS011;4991;43.566;27.820;2022-07-06T08:34:31;8.50;;;5.32;;
9904;SDS011;4991;43.566;27.820;2022-07-06T08:36:56;6.00;;;5.32;;
9904;SDS011;4991;43.566;27.820;2022-07-06T08:39:22;8.60;;;5.68;;
9904;SDS011;4991;43.566;27.820;2022-07-06T08:41:48;10.98;;;5.63;;
9904;SDS011;4991;43.566;27.820;2022-07-06T08:44:14;9.70;;;5.88;;
9904;SDS011;4991;43.566;27.820;2022-07-06T08:46:41;10.20;;;5.63;;
9904;SDS011;4991;43.566;27.820;2022-07-06T08:49:08;6.60;;;5.18;;
9904;SDS011;4991;43.566;27.820;2022-07-06T08:51:37;6.97;;;5.00;;
9904;SDS011;4991;43.566;27.820;2022-07-06T08:54:03;5.60;;;5.00;;
9904;SDS011;4991;43.566;27.820;2022-07-06T08:56:30;6.63;;;5.35;;
9904;SDS011;4991;43.566;27.820;2022-07-06T08:58:56;9.25;;;5.43;;
9904;SDS011;4991;43.566;27.820;2022-07-06T09:01:22;6.15;;;5.43;;
9904;SDS011;4991;43.566;27.820;2022-07-06T09:03:51;6.18;;;4.97;;
9904;SDS011;4991;43.566;27.820;2022-07-06T09:06:25;6.13;;;5.30;;
9904;SDS011;4991;43.566;27.820;2022-07-06T09:08:53;5.25;;;4.53;;
9904;SDS011;4991;43.566;27.820;2022-07-06T09:11:24;6.45;;;5.25;;
9904;SDS011;4991;43.566;27.820;2022-07-06T09:13:51;7.07;;;4.85;;
9904;SDS011;4991;43.566;27.820;2022-07-06T09:16:17;10.25;;;5.20;;
9904;SDS011;4991;43.566;27.820;2022-07-06T09:18:50;6.28;;;4.80;;
9904;SDS011;4991;43.566;27.820;2022-07-06T09:21:25;9.13;;;5.60;;
9904;SDS011;4991;43.566;27.820;2022-07-06T09:23:59;10.55;;;5.00;;
9904;SDS011;4991;43.566;27.820;2022-07-06T09:26:27;7.78;;;5.18;;
9904;SDS011;4991;43.566;27.820;2022-07-06T09:28:54;6.82;;;5.07;;
9904;SDS011;4991;43.566;27.820;2022-07-06T09:31:21;9.60;;;5.05;;
9904;SDS011;4991;43.566;27.820;2022-07-06T09:33:53;9.43;;;5.07;;
9904;SDS011;4991;43.566;27.820;2022-07-06T09:39:16;17.52;;;5.65;;
9904;SDS011;4991;43.566;27.820;2022-07-06T09:41:43;6.25;;;5.00;;
9904;SDS011;4991;43.566;27.820;2022-07-06T09:44:10;7.95;;;4.93;;
9904;SDS011;4991;43.566;27.820;2022-07-06T09:46:40;6.85;;;4.70;;
9904;SDS011;4991;43.566;27.820;2022-07-06T09:49:06;14.77;;;5.82;;
9904;SDS011;4991;43.566;27.820;2022-07-06T09:51:35;7.25;;;4.95;;
9904;SDS011;4991;43.566;27.820;2022-07-06T09:54:06;5.18;;;4.78;;
9904;SDS011;4991;43.566;27.820;2022-07-06T09:56:38;9.32;;;5.38;;
9904;SDS011;4991;43.566;27.820;2022-07-06T09:59:08;8.77;;;4.95;;
9904;SDS011;4991;43.566;27.820;2022-07-06T10:01:36;8.40;;;5.40;;
9904;SDS011;4991;43.566;27.820;2022-07-06T10:04:03;8.45;;;5.55;;
9904;SDS011;4991;43.566;27.820;2022-07-06T10:06:38;9.80;;;4.90;;
9904;SDS011;4991;43.566;27.820;2022-07-06T10:09:08;11.77;;;10.57;;
9904;SDS011;4991;43.566;27.820;2022-07-06T10:11:37;13.88;;;12.55;;
9904;SDS011;4991;43.566;27.820;2022-07-06T10:14:05;5.55;;;4.63;;
9904;SDS011;4991;43.566;27.820;2022-07-06T10:16:34;5.25;;;4.75;;
9904;SDS011;4991;43.566;27.820;2022-07-06T10:19:07;5.53;;;5.00;;
9904;SDS011;4991;43.566;27.820;2022-07-06T10:21:38;12.73;;;5.18;;
9904;SDS011;4991;43.566;27.820;2022-07-06T10:24:07;6.47;;;5.10;;
9904;SDS011;4991;43.566;27.820;2022-07-06T10:26:35;7.75;;;5.35;;
9904;SDS011;4991;43.566;27.820;2022-07-06T10:29:02;9.35;;;5.72;;
9904;SDS011;4991;43.566;27.820;2022-07-06T10:31:29;6.10;;;5.05;;
9904;SDS011;4991;43.566;27.820;2022-07-06T10:33:57;11.10;;;5.15;;
9904;SDS011;4991;43.566;27.820;2022-07-06T10:36:26;5.40;;;4.90;;
9904;SDS011;4991;43.566;27.820;2022-07-06T10:38:53;10.35;;;5.78;;
9904;SDS011;4991;43.566;27.820;2022-07-06T10:41:30;8.68;;;5.50;;
9904;SDS011;4991;43.566;27.820;2022-07-06T10:43:57;9.75;;;4.95;;
9904;SDS011;4991;43.566;27.820;2022-07-06T10:46:24;7.18;;;4.68;;
9904;SDS011;4991;43.566;27.820;2022-07-06T10:48:54;5.70;;;5.05;;
9904;SDS011;4991;43.566;27.820;2022-07-06T10:51:28;7.70;;;5.03;;
9904;SDS011;4991;43.566;27.820;2022-07-06T10:53:58;11.05;;;5.57;;
9904;SDS011;4991;43.566;27.820;2022-07-06T10:56:33;7.63;;;4.63;;
9904;SDS011;4991;43.566;27.820;2022-07-06T10:59:09;6.15;;;4.60;;
9904;SDS011;4991;43.566;27.820;2022-07-06T11:01:36;9.07;;;4.80;;
9904;SDS011;4991;43.566;27.820;2022-07-06T11:06:35;6.85;;;4.85;;
9904;SDS011;4991;43.566;27.820;2022-07-06T11:09:06;30.13;;;7.00;;
9904;SDS011;4991;43.566;27.820;2022-07-06T11:16:34;11.00;;;5.88;;
9904;SDS011;4991;43.566;27.820;2022-07-06T11:19:05;6.82;;;4.90;;
9904;SDS011;4991;43.566;27.820;2022-07-06T11:24:16;5.78;;;5.28;;
9904;SDS011;4991;43.566;27.820;2022-07-06T11:26:44;9.48;;;5.63;;
9904;SDS011;4991;43.566;27.820;2022-07-06T11:29:12;8.65;;;4.95;;
9904;SDS011;4991;43.566;27.820;2022-07-06T11:31:39;5.03;;;4.15;;
9904;SDS011;4991;43.566;27.820;2022-07-06T11:34:09;5.18;;;4.30;;
9904;SDS011;4991;43.566;27.820;2022-07-06T11:36:37;6.15;;;5.18;;
9904;SDS011;4991;43.566;27.820;2022-07-06T11:39:03;17.77;;;5.82;;
9904;SDS011;4991;43.566;27.820;2022-07-06T11:41:31;10.63;;;4.88;;
9904;SDS011;4991;43.566;27.820;2022-07-06T11:43:56;157.98;;;15.93;;
9904;SDS011;4991;43.566;27.820;2022-07-06T11:46:23;57.17;;;8.95;;
9904;SDS011;4991;43.566;27.820;2022-07-06T11:48:54;31.63;;;6.22;;
9904;SDS011;4991;43.566;27.820;2022-07-06T11:51:25;6.82;;;4.30;;
9904;SDS011;4991;43.566;27.820;2022-07-06T11:53:53;4.70;;;4.18;;
9904;SDS011;4991;43.566;27.820;2022-07-06T11:56:21;6.90;;;4.38;;
9904;SDS011;4991;43.566;27.820;2022-07-06T11:58:51;8.93;;;4.18;;
9904;SDS011;4991;43.566;27.820;2022-07-06T12:01:18;8.07;;;4.43;;
9904;SDS011;4991;43.566;27.820;2022-07-06T12:03:44;6.45;;;4.55;;
9904;SDS011;4991;43.566;27.820;2022-07-06T12:06:17;7.10;;;4.60;;
9904;SDS011;4991;43.566;27.820;2022-07-06T12:08:45;9.05;;;5.30;;
9904;SDS011;4991;43.566;27.820;2022-07-06T12:11:20;6.53;;;5.50;;
9904;SDS011;4991;43.566;27.820;2022-07-06T12:13:48;9.18;;;5.15;;
9904;SDS011;4991;43.566;27.820;2022-07-06T12:16:15;8.27;;;4.93;;
9904;SDS011;4991;43.566;27.820;2022-07-06T12:18:42;8.82;;;5.70;;
9904;SDS011;4991;43.566;27.820;2022-07-06T12:21:17;8.73;;;5.32;;
9904;SDS011;4991;43.566;27.820;2022-07-06T12:23:50;4.93;;;4.50;;
9904;SDS011;4991;43.566;27.820;2022-07-06T12:26:18;16.80;;;5.90;;
9904;SDS011;4991;43.566;27.820;2022-07-06T12:28:45;7.13;;;5.75;;
9904;SDS011;4991;43.566;27.820;2022-07-06T12:31:36;9.07;;;6.05;;
9904;SDS011;4991;43.566;27.820;2022-07-06T12:34:04;10.70;;;5.40;;
9904;SDS011;4991;43.566;27.820;2022-07-06T12:36:46;7.60;;;5.60;;
9904;SDS011;4991;43.566;27.820;2022-07-06T12:39:15;9.77;;;5.22;;
9904;SDS011;4991;43.566;27.820;2022-07-06T12:41:49;6.90;;;5.40;;
9904;SDS011;4991;43.566;27.820;2022-07-06T12:44:43;5.57;;;4.78;;
9904;SDS011;4991;43.566;27.820;2022-07-06T12:47:10;9.18;;;5.40;;
9904;SDS011;4991;43.566;27.820;2022-07-06T12:49:36;11.27;;;5.45;;
9904;SDS011;4991;43.566;27.820;2022-07-06T12:54:45;5.55;;;4.47;;
9904;SDS011;4991;43.566;27.820;2022-07-06T12:57:19;8.23;;;4.85;;
9904;SDS011;4991;43.566;27.820;2022-07-06T12:59:53;7.35;;;5.03;;
9904;SDS011;4991;43.566;27.820;2022-07-06T13:02:26;6.70;;;4.80;;
9904;SDS011;4991;43.566;27.820;2022-07-06T13:07:25;9.68;;;4.63;;
9904;SDS011;4991;43.566;27.820;2022-07-06T13:09:52;7.63;;;4.40;;
9904;SDS011;4991;43.566;27.820;2022-07-06T13:12:19;11.25;;;4.55;;
9904;SDS011;4991;43.566;27.820;2022-07-06T13:14:45;7.30;;;4.30;;
9904;SDS011;4991;43.566;27.820;2022-07-06T13:17:11;10.48;;;4.57;;
9904;SDS011;4991;43.566;27.820;2022-07-06T13:19:37;7.28;;;4.40;;
9904;SDS011;4991;43.566;27.820;2022-07-06T13:22:03;10.38;;;4.03;;
9904;SDS011;4991;43.566;27.820;2022-07-06T13:24:29;9.93;;;4.82;;
9904;SDS011;4991;43.566;27.820;2022-07-06T13:26:55;4.70;;;4.18;;
9904;SDS011;4991;43.566;27.820;2022-07-06T13:29:22;8.82;;;5.35;;
9904;SDS011;4991;43.566;27.820;2022-07-06T13:31:48;7.47;;;4.90;;
9904;SDS011;4991;43.566;27.820;2022-07-06T13:34:14;9.57;;;4.32;;
9904;SDS011;4991;43.566;27.820;2022-07-06T13:36:40;6.38;;;4.82;;
9904;SDS011;4991;43.566;27.820;2022-07-06T13:39:05;4.63;;;3.90;;
9904;SDS011;4991;43.566;27.820;2022-07-06T13:41:32;6.05;;;4.30;;
9904;SDS011;4991;43.566;27.820;2022-07-06T13:43:58;7.28;;;4.28;;
9904;SDS011;4991;43.566;27.820;2022-07-06T13:46:26;11.55;;;4.35;;
9904;SDS011;4991;43.566;27.820;2022-07-06T13:48:52;6.82;;;4.22;;
9904;SDS011;4991;43.566;27.820;2022-07-06T13:51:18;10.52;;;4.35;;
9904;SDS011;4991;43.566;27.820;2022-07-06T13:53:44;7.10;;;3.92;;
9904;SDS011;4991;43.566;27.820;2022-07-06T13:56:10;4.55;;;4.10;;
9904;SDS011;4991;43.566;27.820;2022-07-06T13:58:36;9.60;;;4.40;;
9904;SDS011;4991;43.566;27.820;2022-07-06T14:01:02;15.45;;;4.10;;
9904;SDS011;4991;43.566;27.820;2022-07-06T14:03:29;11.40;;;4.32;;
9904;SDS011;4991;43.566;27.820;2022-07-06T14:05:56;6.40;;;3.53;;
9904;SDS011;4991;43.566;27.820;2022-07-06T14:08:24;6.45;;;4.60;;
9904;SDS011;4991;43.566;27.820;2022-07-06T14:10:50;14.02;;;4.90;;
9904;SDS011;4991;43.566;27.820;2022-07-06T14:13:16;4.85;;;3.70;;
9904;SDS011;4991;43.566;27.820;2022-07-06T14:15:42;5.15;;;4.65;;
9904;SDS011;4991;43.566;27.820;2022-07-06T14:18:08;8.32;;;4.32;;
9904;SDS011;4991;43.566;27.820;2022-07-06T14:20:34;3.70;;;3.40;;
9904;SDS011;4991;43.566;27.820;2022-07-06T14:23:00;7.68;;;3.83;;
9904;SDS011;4991;43.566;27.820;2022-07-06T14:25:25;5.88;;;4.35;;
9904;SDS011;4991;43.566;27.820;2022-07-06T14:27:51;6.53;;;4.38;;
9904;SDS011;4991;43.566;27.820;2022-07-06T14:30:17;4.95;;;4.20;;
9904;SDS011;4991;43.566;27.820;2022-07-06T14:32:42;8.18;;;4.60;;
9904;SDS011;4991;43.566;27.820;2022-07-06T14:35:09;9.40;;;4.38;;
9904;SDS011;4991;43.566;27.820;2022-07-06T14:37:36;7.78;;;4.20;;
9904;SDS011;4991;43.566;27.820;2022-07-06T14:40:02;9.18;;;3.50;;
9904;SDS011;4991;43.566;27.820;2022-07-06T14:42:28;11.65;;;4.50;;
9904;SDS011;4991;43.566;27.820;2022-07-06T14:44:53;8.85;;;4.45;;
9904;SDS011;4991;43.566;27.820;2022-07-06T14:47:19;9.63;;;4.20;;
9904;SDS011;4991;43.566;27.820;2022-07-06T14:49:45;11.60;;;3.80;;
9904;SDS011;4991;43.566;27.820;2022-07-06T14:52:13;5.55;;;3.97;;
9904;SDS011;4991;43.566;27.820;2022-07-06T14:54:39;12.20;;;4.50;;
9904;SDS011;4991;43.566;27.820;2022-07-06T14:57:05;9.27;;;3.88;;
9904;SDS011;4991;43.566;27.820;2022-07-06T14:59:33;8.32;;;3.83;;
9904;SDS011;4991;43.566;27.820;2022-07-06T15:02:00;6.68;;;4.38;;
9904;SDS011;4991;43.566;27.820;2022-07-06T15:04:25;5.10;;;4.20;;
9904;SDS011;4991;43.566;27.820;2022-07-06T15:06:51;7.00;;;3.88;;
9904;SDS011;4991;43.566;27.820;2022-07-06T15:09:17;7.35;;;3.80;;
9904;SDS011;4991;43.566;27.820;2022-07-06T15:11:42;6.22;;;3.55;;
9904;SDS011;4991;43.566;27.820;2022-07-06T15:14:11;7.35;;;3.60;;
9904;SDS011;4991;43.566;27.820;2022-07-06T15:16:37;8.63;;;3.92;;
9904;SDS011;4991;43.566;27.820;2022-07-06T15:19:03;6.35;;;5.18;;